sensor_id;sensor_type;location;lat;lon;timestamp;P1;durP1;ratioP1;P2;durP2;ratioP2
33074;SDS011;19433;51.292;6.868;2023-08-24T00:00:43;5.13;;;4.43;;
33074;SDS011;19433;51.292;6.868;2023-08-24T00:03:09;5.03;;;4.17;;
33074;SDS011;19433;51.292;6.868;2023-08-24T00:05:34;7.50;;;4.03;;
33074;SDS011;19433;51.292;6.868;2023-08-24T00:08:07;6.13;;;4.07;;
33074;SDS011;19433;51.292;6.868;2023-08-24T00:10:33;3.90;;;3.50;;
33074;SDS011;19433;51.292;6.868;2023-08-24T00:12:59;4.13;;;3.83;;
33074;SDS011;19433;51.292;6.868;2023-08-24T00:15:25;5.20;;;4.50;;
33074;SDS011;19433;51.292;6.868;2023-08-24T00:17:50;6.40;;;4.37;;
33074;SDS011;19433;51.292;6.868;2023-08-24T00:20:16;4.77;;;4.37;;
33074;SDS011;19433;51.292;6.868;2023-08-24T00:22:41;5.77;;;4.60;;
33074;SDS011;19433;51.292;6.868;2023-08-24T00:25:07;10.63;;;4.77;;
33074;SDS011;19433;51.292;6.868;2023-08-24T00:27:33;5.77;;;4.10;;
33074;SDS011;19433;51.292;6.868;2023-08-24T00:29:59;6.23;;;4.80;;
33074;SDS011;19433;51.292;6.868;2023-08-24T00:32:24;5.03;;;3.77;;
33074;SDS011;19433;51.292;6.868;2023-08-24T00:34:50;4.97;;;4.57;;
33074;SDS011;19433;51.292;6.868;2023-08-24T00:37:15;6.30;;;4.47;;
33074;SDS011;19433;51.292;6.868;2023-08-24T00:39:40;6.30;;;4.60;;
33074;SDS011;19433;51.292;6.868;2023-08-24T00:42:06;4.90;;;4.50;;
33074;SDS011;19433;51.292;6.868;2023-08-24T00:44:31;5.60;;;4.60;;
33074;SDS011;19433;51.292;6.868;2023-08-24T00:46:57;5.43;;;4.17;;
33074;SDS011;19433;51.292;6.868;2023-08-24T00:49:23;4.40;;;4.10;;
33074;SDS011;19433;51.292;6.868;2023-08-24T00:51:50;5.70;;;3.93;;
33074;SDS011;19433;51.292;6.868;2023-08-24T00:54:16;9.23;;;4.27;;
33074;SDS011;19433;51.292;6.868;2023-08-24T00:56:42;4.73;;;4.03;;
33074;SDS011;19433;51.292;6.868;2023-08-24T00:59:07;5.03;;;3.80;;
33074;SDS011;19433;51.292;6.868;2023-08-24T01:01:32;4.47;;;3.60;;
33074;SDS011;19433;51.292;6.868;2023-08-24T01:03:58;4.70;;;4.20;;
33074;SDS011;19433;51.292;6.868;2023-08-24T01:06:23;6.00;;;4.30;;
33074;SDS011;19433;51.292;6.868;2023-08-24T01:08:49;5.47;;;4.10;;
33074;SDS011;19433;51.292;6.868;2023-08-24T01:14:07;5.87;;;4.30;;
33074;SDS011;19433;51.292;6.868;2023-08-24T01:16:39;5.50;;;5.00;;
33074;SDS011;19433;51.292;6.868;2023-08-24T01:19:10;5.20;;;4.17;;
33074;SDS011;19433;51.292;6.868;2023-08-24T01:21:53;4.83;;;4.43;;
33074;SDS011;19433;51.292;6.868;2023-08-24T01:24:36;7.67;;;4.77;;
33074;SDS011;19433;51.292;6.868;2023-08-24T01:27:05;7.53;;;3.90;;
33074;SDS011;19433;51.292;6.868;2023-08-24T01:29:31;6.23;;;4.60;;
33074;SDS011;19433;51.292;6.868;2023-08-24T01:31:56;6.60;;;4.70;;
33074;SDS011;19433;51.292;6.868;2023-08-24T01:34:22;7.93;;;5.20;;
33074;SDS011;19433;51.292;6.868;2023-08-24T01:36:47;5.03;;;4.53;;
33074;SDS011;19433;51.292;6.868;2023-08-24T01:39:30;9.83;;;4.73;;
33074;SDS011;19433;51.292;6.868;2023-08-24T01:42:12;5.87;;;4.90;;
33074;SDS011;19433;51.292;6.868;2023-08-24T01:44:42;5.90;;;5.20;;
33074;SDS011;19433;51.292;6.868;2023-08-24T01:47:12;4.70;;;4.30;;
33074;SDS011;19433;51.292;6.868;2023-08-24T01:49:38;7.50;;;5.60;;
33074;SDS011;19433;51.292;6.868;2023-08-24T01:52:05;7.43;;;6.10;;
33074;SDS011;19433;51.292;6.868;2023-08-24T01:54:31;7.40;;;6.27;;
33074;SDS011;19433;51.292;6.868;2023-08-24T01:56:57;6.60;;;6.00;;
33074;SDS011;19433;51.292;6.868;2023-08-24T01:59:22;6.53;;;5.93;;
33074;SDS011;19433;51.292;6.868;2023-08-24T02:01:47;6.93;;;6.23;;
33074;SDS011;19433;51.292;6.868;2023-08-24T02:04:13;5.23;;;4.70;;
33074;SDS011;19433;51.292;6.868;2023-08-24T02:06:38;6.37;;;5.77;;
33074;SDS011;19433;51.292;6.868;2023-08-24T02:09:04;7.70;;;5.53;;
33074;SDS011;19433;51.292;6.868;2023-08-24T02:11:29;6.73;;;4.83;;
33074;SDS011;19433;51.292;6.868;2023-08-24T02:13:54;6.43;;;4.97;;
33074;SDS011;19433;51.292;6.868;2023-08-24T02:16:20;5.37;;;4.90;;
33074;SDS011;19433;51.292;6.868;2023-08-24T02:18:45;4.70;;;4.13;;
33074;SDS011;19433;51.292;6.868;2023-08-24T02:21:10;9.43;;;5.90;;
33074;SDS011;19433;51.292;6.868;2023-08-24T02:23:37;5.97;;;5.40;;
33074;SDS011;19433;51.292;6.868;2023-08-24T02:26:03;6.00;;;5.03;;
33074;SDS011;19433;51.292;6.868;2023-08-24T02:28:29;6.00;;;5.30;;
33074;SDS011;19433;51.292;6.868;2023-08-24T02:30:54;7.37;;;4.83;;
33074;SDS011;19433;51.292;6.868;2023-08-24T02:33:24;6.00;;;5.23;;
33074;SDS011;19433;51.292;6.868;2023-08-24T02:35:50;6.63;;;4.90;;
33074;SDS011;19433;51.292;6.868;2023-08-24T02:38:15;7.30;;;5.63;;
33074;SDS011;19433;51.292;6.868;2023-08-24T02:40:41;7.63;;;5.27;;
33074;SDS011;19433;51.292;6.868;2023-08-24T02:43:06;5.30;;;4.57;;
33074;SDS011;19433;51.292;6.868;2023-08-24T02:45:32;7.43;;;4.80;;
33074;SDS011;19433;51.292;6.868;2023-08-24T02:47:57;7.00;;;5.27;;
33074;SDS011;19433;51.292;6.868;2023-08-24T02:50:23;5.03;;;4.53;;
33074;SDS011;19433;51.292;6.868;2023-08-24T02:52:48;4.97;;;4.47;;
33074;SDS011;19433;51.292;6.868;2023-08-24T02:55:13;5.43;;;4.40;;
33074;SDS011;19433;51.292;6.868;2023-08-24T02:57:39;5.50;;;4.60;;
33074;SDS011;19433;51.292;6.868;2023-08-24T03:00:04;7.00;;;5.60;;
33074;SDS011;19433;51.292;6.868;2023-08-24T03:02:31;5.73;;;4.43;;
33074;SDS011;19433;51.292;6.868;2023-08-24T03:04:57;6.67;;;5.20;;
33074;SDS011;19433;51.292;6.868;2023-08-24T03:07:22;7.03;;;4.90;;
33074;SDS011;19433;51.292;6.868;2023-08-24T03:09:47;5.40;;;4.40;;
33074;SDS011;19433;51.292;6.868;2023-08-24T03:12:13;4.87;;;4.03;;
33074;SDS011;19433;51.292;6.868;2023-08-24T03:14:38;4.63;;;4.20;;
33074;SDS011;19433;51.292;6.868;2023-08-24T03:17:03;5.30;;;4.67;;
33074;SDS011;19433;51.292;6.868;2023-08-24T03:19:29;5.20;;;4.70;;
33074;SDS011;19433;51.292;6.868;2023-08-24T03:21:55;5.03;;;4.63;;
33074;SDS011;19433;51.292;6.868;2023-08-24T03:24:20;4.90;;;4.03;;
33074;SDS011;19433;51.292;6.868;2023-08-24T03:26:45;5.20;;;4.63;;
33074;SDS011;19433;51.292;6.868;2023-08-24T03:29:13;6.80;;;4.40;;
33074;SDS011;19433;51.292;6.868;2023-08-24T03:31:38;9.13;;;4.23;;
33074;SDS011;19433;51.292;6.868;2023-08-24T03:34:03;4.27;;;3.97;;
33074;SDS011;19433;51.292;6.868;2023-08-24T03:36:29;3.87;;;3.40;;
33074;SDS011;19433;51.292;6.868;2023-08-24T03:38:54;4.50;;;4.10;;
33074;SDS011;19433;51.292;6.868;2023-08-24T03:41:19;4.70;;;4.20;;
33074;SDS011;19433;51.292;6.868;2023-08-24T03:43:45;6.20;;;4.30;;
33074;SDS011;19433;51.292;6.868;2023-08-24T03:46:10;6.00;;;4.27;;
33074;SDS011;19433;51.292;6.868;2023-08-24T03:48:35;4.87;;;4.47;;
33074;SDS011;19433;51.292;6.868;2023-08-24T03:51:01;4.27;;;3.87;;
33074;SDS011;19433;51.292;6.868;2023-08-24T03:53:26;4.60;;;4.10;;
33074;SDS011;19433;51.292;6.868;2023-08-24T03:55:51;4.93;;;4.10;;
33074;SDS011;19433;51.292;6.868;2023-08-24T03:58:17;7.53;;;4.80;;
33074;SDS011;19433;51.292;6.868;2023-08-24T04:00:46;8.27;;;4.87;;
33074;SDS011;19433;51.292;6.868;2023-08-24T04:03:11;6.53;;;4.67;;
33074;SDS011;19433;51.292;6.868;2023-08-24T04:05:37;8.90;;;5.20;;
33074;SDS011;19433;51.292;6.868;2023-08-24T04:08:03;5.10;;;4.47;;
33074;SDS011;19433;51.292;6.868;2023-08-24T04:10:29;5.60;;;5.00;;
33074;SDS011;19433;51.292;6.868;2023-08-24T04:12:55;5.30;;;4.43;;
33074;SDS011;19433;51.292;6.868;2023-08-24T04:15:20;5.40;;;4.90;;
33074;SDS011;19433;51.292;6.868;2023-08-24T04:17:46;5.03;;;4.53;;
33074;SDS011;19433;51.292;6.868;2023-08-24T04:20:14;4.70;;;4.23;;
33074;SDS011;19433;51.292;6.868;2023-08-24T04:22:40;5.87;;;5.30;;
33074;SDS011;19433;51.292;6.868;2023-08-24T04:25:07;4.83;;;4.43;;
33074;SDS011;19433;51.292;6.868;2023-08-24T04:27:33;6.80;;;5.50;;
33074;SDS011;19433;51.292;6.868;2023-08-24T04:29:58;7.23;;;5.37;;
33074;SDS011;19433;51.292;6.868;2023-08-24T04:32:24;6.63;;;6.03;;
33074;SDS011;19433;51.292;6.868;2023-08-24T04:34:49;8.13;;;6.13;;
33074;SDS011;19433;51.292;6.868;2023-08-24T04:37:14;8.03;;;7.13;;
33074;SDS011;19433;51.292;6.868;2023-08-24T04:39:40;6.00;;;5.40;;
33074;SDS011;19433;51.292;6.868;2023-08-24T04:42:05;6.93;;;6.23;;
33074;SDS011;19433;51.292;6.868;2023-08-24T04:44:31;6.63;;;5.93;;
33074;SDS011;19433;51.292;6.868;2023-08-24T04:46:57;8.10;;;6.40;;
33074;SDS011;19433;51.292;6.868;2023-08-24T04:49:22;9.70;;;7.07;;
33074;SDS011;19433;51.292;6.868;2023-08-24T04:51:47;10.47;;;7.63;;
33074;SDS011;19433;51.292;6.868;2023-08-24T04:54:13;9.83;;;7.90;;
33074;SDS011;19433;51.292;6.868;2023-08-24T04:56:38;12.10;;;8.37;;
33074;SDS011;19433;51.292;6.868;2023-08-24T04:59:03;9.90;;;7.70;;
33074;SDS011;19433;51.292;6.868;2023-08-24T05:01:28;9.17;;;8.30;;
33074;SDS011;19433;51.292;6.868;2023-08-24T05:03:56;8.77;;;7.83;;
33074;SDS011;19433;51.292;6.868;2023-08-24T05:06:22;9.73;;;7.80;;
33074;SDS011;19433;51.292;6.868;2023-08-24T05:08:47;10.10;;;7.67;;
33074;SDS011;19433;51.292;6.868;2023-08-24T05:11:14;9.00;;;8.10;;
33074;SDS011;19433;51.292;6.868;2023-08-24T05:13:41;11.23;;;8.60;;
33074;SDS011;19433;51.292;6.868;2023-08-24T05:16:07;12.23;;;7.83;;
33074;SDS011;19433;51.292;6.868;2023-08-24T05:18:33;8.80;;;7.93;;
33074;SDS011;19433;51.292;6.868;2023-08-24T05:20:59;8.93;;;8.00;;
33074;SDS011;19433;51.292;6.868;2023-08-24T05:23:24;7.87;;;6.90;;
33074;SDS011;19433;51.292;6.868;2023-08-24T05:25:49;8.03;;;6.70;;
33074;SDS011;19433;51.292;6.868;2023-08-24T05:28:15;7.63;;;6.40;;
33074;SDS011;19433;51.292;6.868;2023-08-24T05:30:40;7.50;;;6.80;;
33074;SDS011;19433;51.292;6.868;2023-08-24T05:33:05;7.10;;;6.60;;
33074;SDS011;19433;51.292;6.868;2023-08-24T05:35:31;7.97;;;6.20;;
33074;SDS011;19433;51.292;6.868;2023-08-24T05:37:57;8.40;;;6.10;;
33074;SDS011;19433;51.292;6.868;2023-08-24T05:40:22;7.30;;;6.60;;
33074;SDS011;19433;51.292;6.868;2023-08-24T05:42:47;6.87;;;6.30;;
33074;SDS011;19433;51.292;6.868;2023-08-24T05:45:13;7.60;;;6.33;;
33074;SDS011;19433;51.292;6.868;2023-08-24T05:47:38;6.60;;;6.00;;
33074;SDS011;19433;51.292;6.868;2023-08-24T05:50:03;5.80;;;5.30;;
33074;SDS011;19433;51.292;6.868;2023-08-24T05:52:29;7.83;;;6.27;;
33074;SDS011;19433;51.292;6.868;2023-08-24T05:54:54;7.40;;;6.80;;
33074;SDS011;19433;51.292;6.868;2023-08-24T05:57:19;6.60;;;5.93;;
33074;SDS011;19433;51.292;6.868;2023-08-24T05:59:45;7.17;;;5.40;;
33074;SDS011;19433;51.292;6.868;2023-08-24T06:02:10;6.20;;;5.60;;
33074;SDS011;19433;51.292;6.868;2023-08-24T06:04:35;8.30;;;5.80;;
33074;SDS011;19433;51.292;6.868;2023-08-24T06:07:01;6.77;;;6.10;;
33074;SDS011;19433;51.292;6.868;2023-08-24T06:09:26;6.70;;;6.07;;
33074;SDS011;19433;51.292;6.868;2023-08-24T06:11:51;11.23;;;7.20;;
33074;SDS011;19433;51.292;6.868;2023-08-24T06:14:16;7.73;;;6.93;;
33074;SDS011;19433;51.292;6.868;2023-08-24T06:16:42;7.53;;;5.40;;
33074;SDS011;19433;51.292;6.868;2023-08-24T06:19:07;8.73;;;5.87;;
33074;SDS011;19433;51.292;6.868;2023-08-24T06:21:32;7.73;;;5.73;;
33074;SDS011;19433;51.292;6.868;2023-08-24T06:23:58;5.50;;;5.00;;
33074;SDS011;19433;51.292;6.868;2023-08-24T06:26:23;6.53;;;5.93;;
33074;SDS011;19433;51.292;6.868;2023-08-24T06:28:48;7.73;;;5.73;;
33074;SDS011;19433;51.292;6.868;2023-08-24T06:31:14;8.53;;;5.47;;
33074;SDS011;19433;51.292;6.868;2023-08-24T06:33:41;6.97;;;5.73;;
33074;SDS011;19433;51.292;6.868;2023-08-24T06:36:06;7.20;;;4.97;;
33074;SDS011;19433;51.292;6.868;2023-08-24T06:38:32;6.37;;;5.87;;
33074;SDS011;19433;51.292;6.868;2023-08-24T06:40:58;6.87;;;4.47;;
33074;SDS011;19433;51.292;6.868;2023-08-24T06:43:25;6.57;;;4.67;;
33074;SDS011;19433;51.292;6.868;2023-08-24T06:45:51;6.03;;;5.43;;
33074;SDS011;19433;51.292;6.868;2023-08-24T06:48:17;4.43;;;4.03;;
33074;SDS011;19433;51.292;6.868;2023-08-24T06:50:43;4.90;;;4.20;;
33074;SDS011;19433;51.292;6.868;2023-08-24T06:53:09;4.80;;;4.13;;
33074;SDS011;19433;51.292;6.868;2023-08-24T06:55:34;4.40;;;4.00;;
33074;SDS011;19433;51.292;6.868;2023-08-24T06:57:59;6.03;;;3.97;;
33074;SDS011;19433;51.292;6.868;2023-08-24T07:00:24;4.53;;;3.33;;
33074;SDS011;19433;51.292;6.868;2023-08-24T07:02:50;3.40;;;2.90;;
33074;SDS011;19433;51.292;6.868;2023-08-24T07:05:15;3.57;;;3.27;;
33074;SDS011;19433;51.292;6.868;2023-08-24T07:07:45;4.67;;;2.83;;
33074;SDS011;19433;51.292;6.868;2023-08-24T07:10:12;3.50;;;3.20;;
33074;SDS011;19433;51.292;6.868;2023-08-24T07:12:38;4.30;;;2.60;;
33074;SDS011;19433;51.292;6.868;2023-08-24T07:15:05;2.93;;;2.63;;
33074;SDS011;19433;51.292;6.868;2023-08-24T07:17:31;3.90;;;2.57;;
33074;SDS011;19433;51.292;6.868;2023-08-24T07:19:57;7.80;;;4.03;;
33074;SDS011;19433;51.292;6.868;2023-08-24T07:22:23;2.43;;;2.27;;
33074;SDS011;19433;51.292;6.868;2023-08-24T07:24:51;3.23;;;2.30;;
33074;SDS011;19433;51.292;6.868;2023-08-24T07:27:17;3.47;;;2.30;;
33074;SDS011;19433;51.292;6.868;2023-08-24T07:29:43;2.80;;;2.17;;
33074;SDS011;19433;51.292;6.868;2023-08-24T07:32:09;3.93;;;2.00;;
33074;SDS011;19433;51.292;6.868;2023-08-24T07:34:34;2.33;;;2.13;;
33074;SDS011;19433;51.292;6.868;2023-08-24T07:37:01;2.70;;;2.50;;
33074;SDS011;19433;51.292;6.868;2023-08-24T07:39:26;3.27;;;2.37;;
33074;SDS011;19433;51.292;6.868;2023-08-24T07:41:51;3.60;;;2.30;;
33074;SDS011;19433;51.292;6.868;2023-08-24T07:44:17;3.83;;;2.43;;
33074;SDS011;19433;51.292;6.868;2023-08-24T07:46:42;3.30;;;2.43;;
33074;SDS011;19433;51.292;6.868;2023-08-24T07:49:07;2.30;;;2.10;;
33074;SDS011;19433;51.292;6.868;2023-08-24T07:51:33;3.07;;;2.40;;
33074;SDS011;19433;51.292;6.868;2023-08-24T07:53:59;3.97;;;2.33;;
33074;SDS011;19433;51.292;6.868;2023-08-24T07:56:25;2.30;;;2.20;;
33074;SDS011;19433;51.292;6.868;2023-08-24T07:58:50;2.93;;;1.80;;
33074;SDS011;19433;51.292;6.868;2023-08-24T08:01:16;2.93;;;2.37;;
33074;SDS011;19433;51.292;6.868;2023-08-24T08:03:42;2.90;;;2.30;;
33074;SDS011;19433;51.292;6.868;2023-08-24T08:06:07;7.17;;;1.87;;
33074;SDS011;19433;51.292;6.868;2023-08-24T08:08:32;2.60;;;1.73;;
33074;SDS011;19433;51.292;6.868;2023-08-24T08:11:01;2.73;;;1.97;;
33074;SDS011;19433;51.292;6.868;2023-08-24T08:13:27;2.30;;;2.20;;
33074;SDS011;19433;51.292;6.868;2023-08-24T08:15:56;2.53;;;2.10;;
33074;SDS011;19433;51.292;6.868;2023-08-24T08:18:26;3.07;;;2.70;;
33074;SDS011;19433;51.292;6.868;2023-08-24T08:20:53;2.40;;;2.20;;
33074;SDS011;19433;51.292;6.868;2023-08-24T08:23:19;3.50;;;2.20;;
33074;SDS011;19433;51.292;6.868;2023-08-24T08:25:44;2.80;;;2.20;;
33074;SDS011;19433;51.292;6.868;2023-08-24T08:28:11;2.43;;;2.23;;
33074;SDS011;19433;51.292;6.868;2023-08-24T08:30:39;2.33;;;2.20;;
33074;SDS011;19433;51.292;6.868;2023-08-24T08:33:05;2.60;;;1.80;;
33074;SDS011;19433;51.292;6.868;2023-08-24T08:35:30;2.30;;;2.10;;
33074;SDS011;19433;51.292;6.868;2023-08-24T08:37:56;2.40;;;1.97;;
33074;SDS011;19433;51.292;6.868;2023-08-24T08:40:24;5.50;;;2.00;;
33074;SDS011;19433;51.292;6.868;2023-08-24T08:42:55;3.13;;;2.03;;
33074;SDS011;19433;51.292;6.868;2023-08-24T08:47:53;2.10;;;1.90;;
33074;SDS011;19433;51.292;6.868;2023-08-24T08:50:23;1.90;;;1.80;;
33074;SDS011;19433;51.292;6.868;2023-08-24T08:52:49;1.77;;;1.67;;
33074;SDS011;19433;51.292;6.868;2023-08-24T08:55:15;5.30;;;2.30;;
33074;SDS011;19433;51.292;6.868;2023-08-24T08:57:40;4.57;;;2.40;;
33074;SDS011;19433;51.292;6.868;2023-08-24T09:00:08;2.60;;;2.20;;
33074;SDS011;19433;51.292;6.868;2023-08-24T09:02:36;4.10;;;2.00;;
33074;SDS011;19433;51.292;6.868;2023-08-24T09:05:02;2.30;;;2.10;;
33074;SDS011;19433;51.292;6.868;2023-08-24T09:07:29;2.73;;;2.30;;
33074;SDS011;19433;51.292;6.868;2023-08-24T09:09:55;2.13;;;1.93;;
33074;SDS011;19433;51.292;6.868;2023-08-24T09:12:21;3.67;;;2.07;;
33074;SDS011;19433;51.292;6.868;2023-08-24T09:14:46;2.53;;;2.30;;
33074;SDS011;19433;51.292;6.868;2023-08-24T09:17:18;2.23;;;2.03;;
33074;SDS011;19433;51.292;6.868;2023-08-24T09:19:45;3.63;;;2.50;;
33074;SDS011;19433;51.292;6.868;2023-08-24T09:22:12;2.00;;;1.90;;
33074;SDS011;19433;51.292;6.868;2023-08-24T09:24:38;2.97;;;2.77;;
33074;SDS011;19433;51.292;6.868;2023-08-24T09:27:15;2.17;;;2.07;;
33074;SDS011;19433;51.292;6.868;2023-08-24T09:29:42;2.20;;;2.00;;
33074;SDS011;19433;51.292;6.868;2023-08-24T09:32:08;2.20;;;2.00;;
33074;SDS011;19433;51.292;6.868;2023-08-24T09:34:35;2.43;;;2.20;;
33074;SDS011;19433;51.292;6.868;2023-08-24T09:37:01;2.70;;;2.27;;
33074;SDS011;19433;51.292;6.868;2023-08-24T09:39:29;3.53;;;2.03;;
33074;SDS011;19433;51.292;6.868;2023-08-24T09:41:54;2.23;;;2.03;;
33074;SDS011;19433;51.292;6.868;2023-08-24T09:44:24;2.30;;;2.03;;
33074;SDS011;19433;51.292;6.868;2023-08-24T09:46:52;3.70;;;2.20;;
33074;SDS011;19433;51.292;6.868;2023-08-24T09:49:17;3.17;;;2.77;;
33074;SDS011;19433;51.292;6.868;2023-08-24T09:51:44;2.70;;;2.23;;
33074;SDS011;19433;51.292;6.868;2023-08-24T09:54:10;5.10;;;2.73;;
33074;SDS011;19433;51.292;6.868;2023-08-24T09:56:41;2.37;;;2.00;;
33074;SDS011;19433;51.292;6.868;2023-08-24T09:59:10;2.80;;;2.60;;
33074;SDS011;19433;51.292;6.868;2023-08-24T10:01:38;2.43;;;2.23;;
33074;SDS011;19433;51.292;6.868;2023-08-24T10:04:07;4.10;;;2.23;;
33074;SDS011;19433;51.292;6.868;2023-08-24T10:06:34;2.40;;;2.20;;
33074;SDS011;19433;51.292;6.868;2023-08-24T10:09:02;5.63;;;2.37;;
33074;SDS011;19433;51.292;6.868;2023-08-24T10:11:32;3.47;;;1.80;;
33074;SDS011;19433;51.292;6.868;2023-08-24T10:14:04;2.30;;;2.10;;
33074;SDS011;19433;51.292;6.868;2023-08-24T10:16:33;2.37;;;2.27;;
33074;SDS011;19433;51.292;6.868;2023-08-24T10:19:00;2.50;;;2.40;;
33074;SDS011;19433;51.292;6.868;2023-08-24T10:21:28;2.70;;;1.83;;
33074;SDS011;19433;51.292;6.868;2023-08-24T10:23:57;2.70;;;2.00;;
33074;SDS011;19433;51.292;6.868;2023-08-24T10:26:23;2.07;;;1.97;;
33074;SDS011;19433;51.292;6.868;2023-08-24T10:28:49;3.27;;;2.40;;
33074;SDS011;19433;51.292;6.868;2023-08-24T10:31:19;2.90;;;2.60;;
33074;SDS011;19433;51.292;6.868;2023-08-24T10:33:45;6.60;;;1.87;;
33074;SDS011;19433;51.292;6.868;2023-08-24T10:36:12;2.97;;;2.77;;
33074;SDS011;19433;51.292;6.868;2023-08-24T10:38:43;3.70;;;2.83;;
33074;SDS011;19433;51.292;6.868;2023-08-24T10:41:10;3.10;;;2.20;;
33074;SDS011;19433;51.292;6.868;2023-08-24T10:43:39;3.93;;;2.57;;
33074;SDS011;19433;51.292;6.868;2023-08-24T10:46:12;2.30;;;2.20;;
33074;SDS011;19433;51.292;6.868;2023-08-24T10:51:17;2.30;;;1.93;;
33074;SDS011;19433;51.292;6.868;2023-08-24T10:54:06;4.40;;;2.40;;
33074;SDS011;19433;51.292;6.868;2023-08-24T10:56:36;4.03;;;2.73;;
33074;SDS011;19433;51.292;6.868;2023-08-24T10:59:15;3.23;;;2.90;;
33074;SDS011;19433;51.292;6.868;2023-08-24T11:01:42;2.70;;;2.40;;
33074;SDS011;19433;51.292;6.868;2023-08-24T11:04:29;2.43;;;2.33;;
33074;SDS011;19433;51.292;6.868;2023-08-24T11:06:55;2.80;;;2.60;;
33074;SDS011;19433;51.292;6.868;2023-08-24T11:09:25;2.67;;;2.47;;
33074;SDS011;19433;51.292;6.868;2023-08-24T11:11:57;4.37;;;2.30;;
33074;SDS011;19433;51.292;6.868;2023-08-24T11:14:24;4.47;;;2.57;;
33074;SDS011;19433;51.292;6.868;2023-08-24T11:16:55;2.43;;;2.23;;
33074;SDS011;19433;51.292;6.868;2023-08-24T11:19:22;3.03;;;2.83;;
33074;SDS011;19433;51.292;6.868;2023-08-24T11:21:48;2.30;;;2.20;;
33074;SDS011;19433;51.292;6.868;2023-08-24T11:24:13;3.27;;;2.83;;
33074;SDS011;19433;51.292;6.868;2023-08-24T11:26:41;3.00;;;2.70;;
33074;SDS011;19433;51.292;6.868;2023-08-24T11:29:07;2.30;;;1.93;;
33074;SDS011;19433;51.292;6.868;2023-08-24T11:31:33;2.57;;;2.37;;
33074;SDS011;19433;51.292;6.868;2023-08-24T11:33:59;3.10;;;1.90;;
33074;SDS011;19433;51.292;6.868;2023-08-24T11:36:25;2.20;;;2.10;;
33074;SDS011;19433;51.292;6.868;2023-08-24T11:38:56;2.47;;;2.30;;
33074;SDS011;19433;51.292;6.868;2023-08-24T11:41:23;3.13;;;2.30;;
33074;SDS011;19433;51.292;6.868;2023-08-24T11:43:49;3.73;;;2.70;;
33074;SDS011;19433;51.292;6.868;2023-08-24T11:46:25;4.13;;;2.70;;
33074;SDS011;19433;51.292;6.868;2023-08-24T11:48:50;3.63;;;3.00;;
33074;SDS011;19433;51.292;6.868;2023-08-24T11:51:16;3.00;;;2.67;;
33074;SDS011;19433;51.292;6.868;2023-08-24T11:53:43;3.10;;;2.90;;
33074;SDS011;19433;51.292;6.868;2023-08-24T11:56:12;2.43;;;2.23;;
33074;SDS011;19433;51.292;6.868;2023-08-24T11:58:41;4.13;;;2.93;;
33074;SDS011;19433;51.292;6.868;2023-08-24T12:01:08;4.97;;;2.97;;
33074;SDS011;19433;51.292;6.868;2023-08-24T12:03:36;5.23;;;2.70;;
33074;SDS011;19433;51.292;6.868;2023-08-24T12:06:02;5.33;;;2.60;;
33074;SDS011;19433;51.292;6.868;2023-08-24T12:08:38;3.07;;;2.77;;
33074;SDS011;19433;51.292;6.868;2023-08-24T12:11:18;2.90;;;2.70;;
33074;SDS011;19433;51.292;6.868;2023-08-24T12:13:49;4.23;;;2.30;;
33074;SDS011;19433;51.292;6.868;2023-08-24T12:16:16;3.80;;;2.90;;
33074;SDS011;19433;51.292;6.868;2023-08-24T12:21:15;3.53;;;2.87;;
33074;SDS011;19433;51.292;6.868;2023-08-24T12:23:41;4.80;;;3.57;;
33074;SDS011;19433;51.292;6.868;2023-08-24T12:26:06;2.27;;;2.07;;
33074;SDS011;19433;51.292;6.868;2023-08-24T12:28:32;3.20;;;2.63;;
33074;SDS011;19433;51.292;6.868;2023-08-24T12:30:59;3.07;;;2.67;;
33074;SDS011;19433;51.292;6.868;2023-08-24T12:33:28;3.70;;;3.40;;
33074;SDS011;19433;51.292;6.868;2023-08-24T12:35:55;3.70;;;3.27;;
33074;SDS011;19433;51.292;6.868;2023-08-24T12:38:21;7.83;;;3.63;;
33074;SDS011;19433;51.292;6.868;2023-08-24T12:40:47;4.73;;;4.10;;
33074;SDS011;19433;51.292;6.868;2023-08-24T12:43:12;5.60;;;3.10;;
33074;SDS011;19433;51.292;6.868;2023-08-24T12:45:38;6.53;;;3.60;;
33074;SDS011;19433;51.292;6.868;2023-08-24T12:48:04;3.63;;;3.27;;
33074;SDS011;19433;51.292;6.868;2023-08-24T12:50:30;3.30;;;3.00;;
33074;SDS011;19433;51.292;6.868;2023-08-24T12:52:55;3.37;;;3.07;;
33074;SDS011;19433;51.292;6.868;2023-08-24T12:55:24;4.00;;;3.63;;
33074;SDS011;19433;51.292;6.868;2023-08-24T12:57:50;3.90;;;3.03;;
33074;SDS011;19433;51.292;6.868;2023-08-24T13:00:15;5.13;;;3.13;;
33074;SDS011;19433;51.292;6.868;2023-08-24T13:02:40;4.43;;;3.47;;
33074;SDS011;19433;51.292;6.868;2023-08-24T13:05:06;8.70;;;3.60;;
33074;SDS011;19433;51.292;6.868;2023-08-24T13:07:31;4.77;;;3.40;;
33074;SDS011;19433;51.292;6.868;2023-08-24T13:09:57;3.97;;;2.90;;
33074;SDS011;19433;51.292;6.868;2023-08-24T13:12:22;5.00;;;3.70;;
33074;SDS011;19433;51.292;6.868;2023-08-24T13:14:49;3.00;;;2.80;;
33074;SDS011;19433;51.292;6.868;2023-08-24T13:17:14;6.50;;;3.10;;
33074;SDS011;19433;51.292;6.868;2023-08-24T13:19:39;4.90;;;3.10;;
33074;SDS011;19433;51.292;6.868;2023-08-24T13:22:05;5.13;;;3.40;;
33074;SDS011;19433;51.292;6.868;2023-08-24T13:24:30;5.70;;;3.50;;
33074;SDS011;19433;51.292;6.868;2023-08-24T13:26:55;4.80;;;3.73;;
33074;SDS011;19433;51.292;6.868;2023-08-24T13:29:21;4.33;;;3.10;;
33074;SDS011;19433;51.292;6.868;2023-08-24T13:31:46;4.57;;;3.17;;
33074;SDS011;19433;51.292;6.868;2023-08-24T13:34:11;4.63;;;3.33;;
33074;SDS011;19433;51.292;6.868;2023-08-24T13:36:37;5.30;;;3.40;;
33074;SDS011;19433;51.292;6.868;2023-08-24T13:39:02;3.70;;;3.20;;
33074;SDS011;19433;51.292;6.868;2023-08-24T13:41:29;4.30;;;3.30;;
33074;SDS011;19433;51.292;6.868;2023-08-24T13:43:55;4.20;;;2.87;;
33074;SDS011;19433;51.292;6.868;2023-08-24T13:46:21;8.00;;;3.80;;
33074;SDS011;19433;51.292;6.868;2023-08-24T13:48:46;4.57;;;3.33;;
33074;SDS011;19433;51.292;6.868;2023-08-24T13:51:11;5.60;;;3.47;;
33074;SDS011;19433;51.292;6.868;2023-08-24T13:53:37;4.77;;;4.17;;
33074;SDS011;19433;51.292;6.868;2023-08-24T13:56:02;10.33;;;4.40;;
33074;SDS011;19433;51.292;6.868;2023-08-24T13:58:28;5.20;;;3.73;;
33074;SDS011;19433;51.292;6.868;2023-08-24T14:00:58;5.50;;;3.87;;
33074;SDS011;19433;51.292;6.868;2023-08-24T14:03:23;6.53;;;3.80;;
33074;SDS011;19433;51.292;6.868;2023-08-24T14:05:49;7.30;;;4.03;;
33074;SDS011;19433;51.292;6.868;2023-08-24T14:08:16;7.20;;;3.97;;
33074;SDS011;19433;51.292;6.868;2023-08-24T14:10:42;5.13;;;3.60;;
33074;SDS011;19433;51.292;6.868;2023-08-24T14:13:07;6.30;;;3.60;;
33074;SDS011;19433;51.292;6.868;2023-08-24T14:15:32;6.53;;;4.50;;
33074;SDS011;19433;51.292;6.868;2023-08-24T14:17:57;4.73;;;3.70;;
33074;SDS011;19433;51.292;6.868;2023-08-24T14:20:23;4.80;;;3.43;;
33074;SDS011;19433;51.292;6.868;2023-08-24T14:22:49;5.30;;;3.90;;
33074;SDS011;19433;51.292;6.868;2023-08-24T14:25:14;6.17;;;3.40;;
33074;SDS011;19433;51.292;6.868;2023-08-24T14:27:40;4.90;;;4.10;;
33074;SDS011;19433;51.292;6.868;2023-08-24T14:30:07;4.53;;;3.70;;
33074;SDS011;19433;51.292;6.868;2023-08-24T14:32:32;6.47;;;3.87;;
33074;SDS011;19433;51.292;6.868;2023-08-24T14:34:58;5.00;;;3.90;;
33074;SDS011;19433;51.292;6.868;2023-08-24T14:37:24;6.53;;;4.30;;
33074;SDS011;19433;51.292;6.868;2023-08-24T14:39:49;4.23;;;3.43;;
33074;SDS011;19433;51.292;6.868;2023-08-24T14:42:14;4.50;;;3.60;;
33074;SDS011;19433;51.292;6.868;2023-08-24T14:44:41;8.90;;;3.53;;
33074;SDS011;19433;51.292;6.868;2023-08-24T14:47:06;6.40;;;3.67;;
33074;SDS011;19433;51.292;6.868;2023-08-24T14:49:31;4.70;;;3.60;;
33074;SDS011;19433;51.292;6.868;2023-08-24T14:51:58;9.80;;;4.53;;
33074;SDS011;19433;51.292;6.868;2023-08-24T14:54:23;4.47;;;3.10;;